createdAt,value
2023-01-25T00:01:36.780Z,2.60
2023-01-25T00:16:38.428Z,3.07
2023-01-25T00:31:40.052Z,4.27
2023-01-25T00:46:41.608Z,2.97
2023-01-25T01:01:43.110Z,3.27
2023-01-25T01:16:44.637Z,3.07
2023-01-25T01:31:46.214Z,3.47
2023-01-25T01:46:47.790Z,2.80
2023-01-25T02:01:49.261Z,3.03
2023-01-25T02:16:50.728Z,3.10
2023-01-25T02:31:52.315Z,3.10
2023-01-25T02:46:53.878Z,2.80
2023-01-25T03:01:55.477Z,3.17
2023-01-25T03:16:57.018Z,3.70
2023-01-25T03:31:58.577Z,3.00
2023-01-25T03:47:00.171Z,2.93
2023-01-25T04:02:01.680Z,3.13
2023-01-25T04:17:03.160Z,3.80
2023-01-25T04:32:04.722Z,2.97
2023-01-25T04:47:06.273Z,3.43
2023-01-25T05:02:07.785Z,3.87
2023-01-25T05:17:09.290Z,3.73
2023-01-25T05:32:10.831Z,3.13
2023-01-25T05:47:12.360Z,3.80
2023-01-25T06:02:13.901Z,3.90
2023-01-25T06:17:15.432Z,3.20
2023-01-25T06:32:16.957Z,3.70
2023-01-25T06:47:18.485Z,3.80
2023-01-25T07:02:19.981Z,3.30
2023-01-25T07:17:21.478Z,5.10
2023-01-25T07:32:22.938Z,5.23
2023-01-25T07:47:24.405Z,4.33
2023-01-25T08:02:25.891Z,4.70
2023-01-25T08:17:27.354Z,4.63
2023-01-25T08:32:28.859Z,5.00
2023-01-25T08:47:30.331Z,7.93
2023-01-25T09:02:31.785Z,4.53
2023-01-25T09:17:33.279Z,4.97
2023-01-25T09:32:34.836Z,3.97
2023-01-25T09:47:36.337Z,4.47
2023-01-25T10:02:37.892Z,5.33
2023-01-25T10:17:39.427Z,4.47
2023-01-25T10:32:51.039Z,4.17
2023-01-25T10:47:57.068Z,5.80
2023-01-25T11:02:58.644Z,5.33
2023-01-25T11:18:00.175Z,4.67
2023-01-25T11:33:01.635Z,6.53
2023-01-25T11:48:03.082Z,5.27
2023-01-25T12:03:04.626Z,4.17
2023-01-25T12:18:06.127Z,4.37
2023-01-25T12:33:14.168Z,5.60
2023-01-25T12:48:16.019Z,5.67
2023-01-25T13:03:17.505Z,5.43
2023-01-25T13:18:18.972Z,5.97
2023-01-25T13:33:20.453Z,5.27
2023-01-25T13:48:21.967Z,5.97
2023-01-25T14:03:23.466Z,6.43
2023-01-25T14:18:24.930Z,6.70
2023-01-25T14:33:26.408Z,6.93
2023-01-25T14:48:27.875Z,6.20
2023-01-25T15:03:29.337Z,7.93
2023-01-25T15:18:30.795Z,6.67
2023-01-25T15:33:32.269Z,7.20
2023-01-25T15:48:33.738Z,7.20
2023-01-25T16:03:35.209Z,7.80
2023-01-25T16:18:36.827Z,8.73
2023-01-25T16:33:38.302Z,8.97
2023-01-25T16:48:39.776Z,9.50
2023-01-25T17:03:41.259Z,9.37
2023-01-25T17:18:42.722Z,9.40
2023-01-25T17:33:44.204Z,10.13
2023-01-25T17:48:45.722Z,9.40
2023-01-25T18:03:47.203Z,9.10
2023-01-25T18:18:48.673Z,10.07
2023-01-25T18:33:50.135Z,11.53
2023-01-25T18:48:51.621Z,9.07
2023-01-25T19:03:53.115Z,10.07
2023-01-25T19:18:54.597Z,10.63
2023-01-25T19:33:57.310Z,10.50
2023-01-25T19:48:58.806Z,10.57
2023-01-25T20:04:00.255Z,11.43
2023-01-25T20:19:01.742Z,9.97
2023-01-25T20:34:03.211Z,10.47
2023-01-25T20:49:04.683Z,11.63
2023-01-25T21:04:06.240Z,10.30
2023-01-25T21:19:07.764Z,10.37
2023-01-25T21:34:09.295Z,12.13
2023-01-25T21:49:10.772Z,10.63
2023-01-25T22:04:12.262Z,11.07
2023-01-25T22:19:13.718Z,10.90
2023-01-25T22:34:15.169Z,11.30
2023-01-25T22:49:16.638Z,11.47
2023-01-25T23:04:18.118Z,12.43
2023-01-25T23:19:19.580Z,13.07
2023-01-25T23:34:21.053Z,12.43
2023-01-25T23:49:22.582Z,12.30
